Time;durP1;ratioP1;P1;durP2;ratioP2;P2;SDS_P1;SDS_P2;PMS_P1;PMS_P2;Temp;Humidity;BMP_temperature;BMP_pressure;BME280_temperature;BME280_humidity;BME280_pressure;Samples;Min_cycle;Max_cycle;Signal;HPM_P1;HPM_P2
2022/02/05 00:01:48;;;;;;;;;;;;;;;1.76;100.00;101209.88;2568173;30;137262;-39
2022/02/05 00:04:17;;;;;;;;;;;;;;;1.73;100.00;101208.31;2568313;30;138351;-39
2022/02/05 00:06:49;;;;;;;;;;;;;;;1.67;100.00;101207.03;2569212;30;137411;-40
2022/02/05 00:44:55;;;;;;;;;;;;;;;1.74;100.00;101274.59;2568635;30;136826;-40
2022/02/05 00:47:24;;;;;;;;;;;;;;;1.76;100.00;101272.59;2566878;30;138426;-40
2022/02/05 00:49:57;;;;;;;;;;;;;;;1.75;100.00;101270.91;2567879;30;139236;-40
2022/02/05 00:52:26;;;;;;;;;;;;;;;1.79;100.00;101271.47;2569476;30;138361;-40
2022/02/05 00:55:03;;;;;;;;;;;;;;;1.75;100.00;101276.28;2566338;30;136833;-39
2022/02/05 00:57:44;;;;;;;;;;;;;;;1.71;100.00;101266.81;2569203;30;138523;-39
2022/02/05 01:00:17;;;;;;;;;;;;;;;1.68;100.00;101272.47;2566987;30;137220;-40
2022/02/05 01:02:46;;;;;;;;;;;;;;;1.65;100.00;101275.44;2568823;30;136776;-39
2022/02/05 01:05:16;;;;;;;;;;;;;;;1.63;100.00;101270.19;2566614;30;136824;-40
2022/02/05 01:07:44;;;;;;;;;;;;;;;1.65;100.00;101270.06;2567895;30;138189;-40
2022/02/05 01:10:13;;;;;;;;;;;;;;;1.62;100.00;101279.25;2568392;30;137727;-40
2022/02/05 01:12:47;;;;;;;;;;;;;;;1.61;100.00;101276.72;2568572;30;138527;-40
2022/02/05 01:15:19;;;;;;;;;;;;;;;1.62;100.00;101284.66;2568109;30;137275;-40
2022/02/05 01:17:53;;;;;;;;;;;;;;;1.66;100.00;101295.97;2568130;30;137123;-39
2022/02/05 01:20:51;;;;;;;;;;;;;;;1.64;100.00;101295.28;2568164;30;136794;-40
2022/02/05 01:23:16;;;;;;;;;;;;;;;1.63;100.00;101293.56;2567273;30;138624;-40
2022/02/05 01:25:55;;;;;;;;;;;;;;;1.63;100.00;101304.34;2568513;30;136918;-40
2022/02/05 01:28:28;;;;;;;;;;;;;;;1.66;100.00;101298.66;2568598;30;137210;-40
2022/02/05 01:30:57;;;;;;;;;;;;;;;1.72;100.00;101303.47;2568820;30;137938;-38
2022/02/05 01:56:23;;;;;;;;;;;;;;;1.72;100.00;101347.38;2570860;30;138980;-40
2022/02/05 01:58:19;;;;;;;;;;;;;;;1.76;100.00;101341.72;2568514;30;138166;-41
2022/02/05 02:19:52;;;;;;;;;;;;;;;1.69;100.00;101352.19;2571512;30;138712;-42
2022/02/05 02:22:51;;;;;;;;;;;;;;;1.73;100.00;101348.22;2568376;30;139239;-41
2022/02/05 02:28:12;;;;;;;;;;;;;;;1.71;100.00;101355.59;2569874;30;138161;-42
2022/02/05 02:30:52;;;;;;;;;;;;;;;1.68;100.00;101362.09;2567063;30;137023;-40
2022/02/05 02:33:29;;;;;;;;;;;;;;;1.68;100.00;101350.50;2571545;30;138627;-41
2022/02/05 02:35:58;;;;;;;;;;;;;;;1.69;100.00;101365.63;2569876;30;137320;-40
2022/02/05 02:38:34;;;;;;;;;;;;;;;1.67;100.00;101363.06;2566329;30;137315;-40
2022/02/05 02:41:13;;;;;;;;;;;;;;;1.72;100.00;101371.59;2571069;30;138772;-41
2022/02/05 02:43:42;;;;;;;;;;;;;;;1.67;100.00;101373.84;2568653;30;138113;-41
2022/02/05 02:46:09;;;;;;;;;;;;;;;1.65;100.00;101388.44;2571031;30;136846;-41
2022/02/05 02:48:42;;;;;;;;;;;;;;;1.66;100.00;101390.13;2568766;30;139731;-40
2022/02/05 02:59:26;;;;;;;;;;;;;;;1.62;100.00;101399.47;2569270;30;138408;-40
2022/02/05 03:02:00;;;;;;;;;;;;;;;1.68;100.00;101404.28;2568641;30;137060;-41
2022/02/05 03:04:28;;;;;;;;;;;;;;;1.66;100.00;101406.28;2570605;30;138921;-40
2022/02/05 03:06:56;;;;;;;;;;;;;;;1.69;100.00;101401.44;2572320;30;136987;-40
2022/02/05 03:09:27;;;;;;;;;;;;;;;1.65;100.00;101404.56;2570139;30;137445;-40
2022/02/05 03:11:55;;;;;;;;;;;;;;;1.65;100.00;101407.28;2570470;30;137857;-40
2022/02/05 03:14:22;;;;;;;;;;;;;;;1.65;100.00;101404.56;2570463;30;137523;-40
2022/02/05 03:16:52;;;;;;;;;;;;;;;1.67;100.00;101403.44;2567417;30;137411;-40
2022/02/05 03:19:20;;;;;;;;;;;;;;;1.64;100.00;101405.56;2570882;30;138375;-41
2022/02/05 03:21:47;;;;;;;;;;;;;;;1.65;100.00;101409.97;2568467;30;137566;-40
2022/02/05 03:24:15;;;;;;;;;;;;;;;1.66;100.00;101414.34;2570380;30;138976;-40
2022/02/05 03:26:43;;;;;;;;;;;;;;;1.69;100.00;101416.75;2568811;30;136971;-40
2022/02/05 03:29:12;;;;;;;;;;;;;;;1.68;100.00;101420.44;2568977;30;139270;-40
2022/02/05 03:31:40;;;;;;;;;;;;;;;1.72;100.00;101417.34;2570983;30;136979;-44
2022/02/05 03:34:08;;;;;;;;;;;;;;;1.72;100.00;101428.09;2569909;30;138339;-41
2022/02/05 03:36:40;;;;;;;;;;;;;;;1.72;100.00;101427.22;2570577;30;138205;-40
2022/02/05 03:39:09;;;;;;;;;;;;;;;1.68;100.00;101426.66;2569226;30;138180;-40
2022/02/05 03:41:36;;;;;;;;;;;;;;;1.65;100.00;101424.25;2568375;30;137522;-40
2022/02/05 03:44:04;;;;;;;;;;;;;;;1.57;100.00;101430.31;2568567;30;138997;-40
2022/02/05 03:46:33;;;;;;;;;;;;;;;1.58;100.00;101428.47;2573386;30;137838;-40
2022/02/05 03:49:00;;;;;;;;;;;;;;;1.61;100.00;101430.06;2572260;30;138974;-40
2022/02/05 03:51:28;;;;;;;;;;;;;;;1.56;100.00;101435.84;2571236;30;138082;-40
2022/02/05 03:53:56;;;;;;;;;;;;;;;1.58;100.00;101440.06;2567557;30;139324;-41
2022/02/05 03:56:24;;;;;;;;;;;;;;;1.55;100.00;101448.44;2570125;30;137016;-40
2022/02/05 03:58:51;;;;;;;;;;;;;;;1.52;100.00;101459.47;2570800;30;139468;-44
2022/02/05 04:01:19;;;;;;;;;;;;;;;1.51;100.00;101454.25;2570248;30;137217;-40
2022/02/05 04:03:47;;;;;;;;;;;;;;;1.45;100.00;101450.25;2569248;30;138033;-40
2022/02/05 04:06:16;;;;;;;;;;;;;;;1.42;100.00;101458.59;2570607;30;136958;-40
2022/02/05 04:08:45;;;;;;;;;;;;;;;1.40;100.00;101455.19;2569407;30;138116;-42
2022/02/05 04:11:49;;;;;;;;;;;;;;;1.44;100.00;101456.63;2570991;30;137805;-40
2022/02/05 04:16:48;;;;;;;;;;;;;;;1.62;100.00;101455.97;2569202;30;136967;-40
2022/02/05 04:19:16;;;;;;;;;;;;;;;1.67;100.00;101456.41;2569204;30;139084;-40
2022/02/05 04:21:44;;;;;;;;;;;;;;;1.70;100.00;101461.50;2570470;30;137295;-40
2022/02/05 04:24:12;;;;;;;;;;;;;;;1.71;100.00;101464.03;2571874;30;138420;-40
2022/02/05 04:26:40;;;;;;;;;;;;;;;1.82;100.00;101470.31;2570189;30;137106;-41
2022/02/05 04:29:09;;;;;;;;;;;;;;;1.81;100.00;101464.06;2570417;30;138178;-40
2022/02/05 04:31:37;;;;;;;;;;;;;;;1.79;100.00;101466.03;2566963;30;137128;-40
2022/02/05 04:34:05;;;;;;;;;;;;;;;1.77;100.00;101461.81;2571812;30;138342;-42
2022/02/05 04:36:35;;;;;;;;;;;;;;;1.71;100.00;101461.34;2570272;30;137972;-43
2022/02/05 04:39:11;;;;;;;;;;;;;;;1.65;100.00;101463.75;2568136;30;137368;-40
2022/02/05 04:41:55;;;;;;;;;;;;;;;1.58;100.00;101471.53;2567369;30;137397;-40
2022/02/05 04:44:43;;;;;;;;;;;;;;;1.57;100.00;101480.59;2569475;30;138446;-41
2022/02/05 05:05:25;;;;;;;;;;;;;;;1.35;100.00;101500.47;2570167;30;137333;-40
2022/02/05 05:11:39;;;;;;;;;;;;;;;1.26;100.00;101504.81;2569377;30;139002;-38
2022/02/05 05:15:19;;;;;;;;;;;;;;;1.16;100.00;101502.06;2570876;30;138240;-40
2022/02/05 05:19:38;;;;;;;;;;;;;;;1.21;100.00;101515.97;2569861;30;137733;-41
2022/02/05 05:22:00;;;;;;;;;;;;;;;1.12;100.00;101516.78;2570020;30;138643;-40
2022/02/05 05:24:29;;;;;;;;;;;;;;;1.19;100.00;101519.75;2570809;30;137108;-40
2022/02/05 05:26:56;;;;;;;;;;;;;;;1.12;100.00;101514.09;2570353;30;139020;-41
2022/02/05 05:29:24;;;;;;;;;;;;;;;1.11;100.00;101528.50;2569985;30;136916;-41
2022/02/05 05:31:52;;;;;;;;;;;;;;;1.13;100.00;101535.44;2569938;30;137121;-41
2022/02/05 05:34:20;;;;;;;;;;;;;;;1.15;100.00;101528.09;2570330;30;137003;-41
2022/02/05 05:36:49;;;;;;;;;;;;;;;1.24;100.00;101537.19;2569299;30;138425;-44
2022/02/05 05:39:16;;;;;;;;;;;;;;;1.26;100.00;101540.59;2569248;30;137924;-41
2022/02/05 05:41:44;;;;;;;;;;;;;;;1.29;100.00;101545.72;2568986;30;138274;-42
2022/02/05 05:44:56;;;;;;;;;;;;;;;1.33;100.00;101542.78;2570018;30;137206;-40
2022/02/05 05:50:48;;;;;;;;;;;;;;;1.44;100.00;101553.44;2570283;30;138031;-41
2022/02/05 05:52:34;;;;;;;;;;;;;;;1.50;100.00;101547.50;2569572;30;139091;-42
2022/02/05 05:55:01;;;;;;;;;;;;;;;1.56;100.00;101546.97;2570071;30;137239;-41
2022/02/05 05:57:29;;;;;;;;;;;;;;;1.53;100.00;101544.53;2568263;30;137541;-41
2022/02/05 05:59:57;;;;;;;;;;;;;;;1.51;100.00;101545.69;2567213;30;137246;-40
2022/02/05 06:02:25;;;;;;;;;;;;;;;1.54;100.00;101554.31;2569766;30;139019;-40
2022/02/05 06:04:53;;;;;;;;;;;;;;;1.57;100.00;101554.03;2569674;30;137277;-40
2022/02/05 06:07:21;;;;;;;;;;;;;;;1.65;100.00;101555.22;2570399;30;139010;-40
2022/02/05 06:09:48;;;;;;;;;;;;;;;1.66;100.00;101571.22;2570233;30;137523;-40
2022/02/05 06:12:16;;;;;;;;;;;;;;;1.67;100.00;101569.41;2569974;30;138317;-41
2022/02/05 06:14:45;;;;;;;;;;;;;;;1.68;100.00;101563.84;2569600;30;136863;-42
2022/02/05 06:17:21;;;;;;;;;;;;;;;1.68;100.00;101563.03;2570070;30;138507;-41
2022/02/05 06:19:49;;;;;;;;;;;;;;;1.70;100.00;101569.94;2569016;30;137402;-40
2022/02/05 06:22:17;;;;;;;;;;;;;;;1.67;100.00;101580.16;2570246;30;137377;-40
2022/02/05 06:24:45;;;;;;;;;;;;;;;1.65;100.00;101576.75;2571105;30;137119;-41
2022/02/05 06:27:12;;;;;;;;;;;;;;;1.64;100.00;101580.44;2567231;30;138373;-40
2022/02/05 06:29:40;;;;;;;;;;;;;;;1.50;100.00;101581.63;2566732;30;137145;-41
2022/02/05 06:32:08;;;;;;;;;;;;;;;1.52;100.00;101585.88;2570307;30;138096;-40
2022/02/05 06:34:36;;;;;;;;;;;;;;;1.54;100.00;101583.91;2569354;30;136982;-40
2022/02/05 06:37:04;;;;;;;;;;;;;;;1.57;100.00;101589.00;2567511;30;138520;-41
2022/02/05 06:39:32;;;;;;;;;;;;;;;1.55;100.00;101591.00;2569370;30;137026;-40
2022/02/05 06:41:59;;;;;;;;;;;;;;;1.59;100.00;101594.28;2571629;30;136764;-41
2022/02/05 06:44:27;;;;;;;;;;;;;;;1.59;100.00;101602.34;2570271;30;137921;-40
2022/02/05 06:46:55;;;;;;;;;;;;;;;1.55;100.00;101593.69;2570176;30;139137;-41
2022/02/05 06:49:26;;;;;;;;;;;;;;;1.61;100.00;101602.22;2572576;30;136919;-40
2022/02/05 06:51:54;;;;;;;;;;;;;;;1.62;100.00;101603.94;2569874;30;138633;-41
2022/02/05 06:54:22;;;;;;;;;;;;;;;1.59;100.00;101607.72;2568926;30;137360;-40
2022/02/05 06:56:52;;;;;;;;;;;;;;;1.53;100.00;101609.09;2569816;30;138542;-41
2022/02/05 06:59:20;;;;;;;;;;;;;;;1.48;100.00;101611.34;2573438;30;137214;-44
2022/02/05 07:01:48;;;;;;;;;;;;;;;1.41;100.00;101618.25;2569633;30;138363;-44
2022/02/05 07:04:17;;;;;;;;;;;;;;;1.32;100.00;101619.88;2569762;30;137326;-40
2022/02/05 07:06:45;;;;;;;;;;;;;;;1.36;100.00;101620.50;2569642;30;138408;-40
2022/02/05 07:09:13;;;;;;;;;;;;;;;1.26;100.00;101623.13;2569982;30;137654;-40
2022/02/05 07:11:41;;;;;;;;;;;;;;;1.19;100.00;101624.59;2570311;30;138456;-43
2022/02/05 07:14:10;;;;;;;;;;;;;;;1.15;100.00;101611.44;2570043;30;137924;-40
2022/02/05 07:16:41;;;;;;;;;;;;;;;1.15;100.00;101621.34;2569540;30;138229;-40
2022/02/05 07:21:42;;;;;;;;;;;;;;;1.13;100.00;101617.94;2569798;30;138289;-40
2022/02/05 07:24:23;;;;;;;;;;;;;;;1.06;100.00;101609.53;2570413;30;137258;-40
2022/02/05 07:29:37;;;;;;;;;;;;;;;1.08;100.00;101620.16;2568967;30;136794;-40
2022/02/05 07:32:05;;;;;;;;;;;;;;;1.09;100.00;101625.41;2568577;30;138694;-37
2022/02/05 07:34:35;;;;;;;;;;;;;;;1.13;100.00;101618.78;2568887;30;138161;-37
2022/02/05 07:37:03;;;;;;;;;;;;;;;1.04;100.00;101627.63;2567794;30;138095;-37
2022/02/05 07:39:35;;;;;;;;;;;;;;;1.02;100.00;101623.34;2568639;30;136701;-37
2022/02/05 07:42:03;;;;;;;;;;;;;;;1.07;100.00;101639.97;2564898;30;138945;-37
2022/02/05 07:44:31;;;;;;;;;;;;;;;1.08;100.00;101628.22;2568138;30;138065;-37
2022/02/05 07:47:00;;;;;;;;;;;;;;;1.10;100.00;101639.69;2568542;30;139152;-37
2022/02/05 07:49:37;;;;;;;;;;;;;;;1.10;100.00;101634.31;2569812;30;137063;-37
2022/02/05 07:52:06;;;;;;;;;;;;;;;1.10;100.00;101645.91;2568523;30;138343;-37
2022/02/05 07:54:34;;;;;;;;;;;;;;;1.15;100.00;101651.75;2569412;30;137295;-37
2022/02/05 07:57:02;;;;;;;;;;;;;;;1.13;100.00;101655.56;2569264;30;136715;-37
2022/02/05 07:59:30;;;;;;;;;;;;;;;1.25;100.00;101649.13;2568527;30;137778;-37
2022/02/05 08:01:58;;;;;;;;;;;;;;;1.22;100.00;101656.63;2567853;30;138488;-37
2022/02/05 08:04:25;;;;;;;;;;;;;;;1.30;100.00;101651.44;2569525;30;136823;-37
2022/02/05 08:06:55;;;;;;;;;;;;;;;1.28;100.00;101645.34;2569111;30;137267;-37
2022/02/05 08:09:28;;;;;;;;;;;;;;;1.42;100.00;101652.22;2569125;30;137129;-37
2022/02/05 08:12:07;;;;;;;;;;;;;;;1.48;100.00;101662.44;2567580;30;137482;-37
2022/02/05 08:14:39;;;;;;;;;;;;;;;1.60;100.00;101662.38;2567524;30;139043;-37
2022/02/05 08:17:17;;;;;;;;;;;;;;;1.69;100.00;101667.78;2569019;30;137344;-37
2022/02/05 08:19:45;;;;;;;;;;;;;;;1.78;100.00;101662.63;2569584;30;137204;-37
2022/02/05 08:22:17;;;;;;;;;;;;;;;1.82;100.00;101672.97;2566176;30;138549;-37
2022/02/05 08:24:45;;;;;;;;;;;;;;;1.90;100.00;101672.31;2568465;30;137317;-37
2022/02/05 08:27:13;;;;;;;;;;;;;;;1.99;100.00;101678.72;2566771;30;138370;-37
2022/02/05 08:29:52;;;;;;;;;;;;;;;2.09;100.00;101682.28;2568292;30;137149;-37
2022/02/05 08:32:23;;;;;;;;;;;;;;;2.19;100.00;101678.81;2568369;30;139040;-37
2022/02/05 08:34:51;;;;;;;;;;;;;;;2.25;100.00;101680.94;2569297;30;137104;-37
2022/02/05 08:37:19;;;;;;;;;;;;;;;2.34;100.00;101687.34;2565554;38;137229;-38
2022/02/05 08:39:47;;;;;;;;;;;;;;;2.43;100.00;101695.47;2568424;30;137194;-37
2022/02/05 08:42:15;;;;;;;;;;;;;;;2.50;100.00;101693.06;2568144;30;137442;-37
2022/02/05 08:44:43;;;;;;;;;;;;;;;2.53;100.00;101700.03;2569022;30;138520;-37
2022/02/05 08:47:11;;;;;;;;;;;;;;;2.65;100.00;101696.25;2568767;30;138543;-37
2022/02/05 08:49:38;;;;;;;;;;;;;;;2.70;100.00;101691.28;2570521;30;137273;-37
2022/02/05 08:52:09;;;;;;;;;;;;;;;2.79;100.00;101678.81;2568592;30;138458;-37
2022/02/05 08:54:38;;;;;;;;;;;;;;;2.87;100.00;101680.78;2568971;30;137117;-37
2022/02/05 08:57:07;;;;;;;;;;;;;;;2.92;100.00;101683.06;2568867;30;138377;-37
2022/02/05 08:59:52;;;;;;;;;;;;;;;2.96;100.00;101677.25;2568414;30;137540;-37
2022/02/05 09:05:26;;;;;;;;;;;;;;;3.09;100.00;101670.72;2566645;30;138101;-37
2022/02/05 09:07:54;;;;;;;;;;;;;;;3.16;100.00;101669.16;2568202;30;138332;-38
2022/02/05 09:11:01;;;;;;;;;;;;;;;3.17;100.00;101658.22;2568227;30;137058;-37
2022/02/05 09:13:36;;;;;;;;;;;;;;;3.27;100.00;101671.72;2568633;30;139258;-37
2022/02/05 09:16:05;;;;;;;;;;;;;;;3.38;100.00;101672.53;2567588;30;136768;-37
2022/02/05 09:18:33;;;;;;;;;;;;;;;3.41;100.00;101670.41;2568490;30;139106;-37
2022/02/05 09:21:01;;;;;;;;;;;;;;;3.49;100.00;101675.09;2568552;30;137173;-37
2022/02/05 09:23:28;;;;;;;;;;;;;;;3.52;100.00;101674.81;2568862;30;137437;-37
2022/02/05 09:25:59;;;;;;;;;;;;;;;3.56;100.00;101676.22;2568380;30;137760;-37
2022/02/05 09:28:29;;;;;;;;;;;;;;;3.59;100.00;101675.91;2567817;30;138327;-37
2022/02/05 09:33:30;;;;;;;;;;;;;;;3.71;100.00;101673.91;2568860;30;138209;-37
2022/02/05 09:35:58;;;;;;;;;;;;;;;3.79;100.00;101685.81;2568907;30;136897;-37
2022/02/05 09:38:26;;;;;;;;;;;;;;;3.81;100.00;101689.19;2568448;30;137997;-37
2022/02/05 09:40:54;;;;;;;;;;;;;;;3.84;99.83;101697.88;2568169;30;136743;-37
2022/02/05 09:43:26;;;;;;;;;;;;;;;3.88;100.00;101693.88;2568785;30;138320;-37
2022/02/05 09:45:57;;;;;;;;;;;;;;;4.03;100.00;101709.63;2568674;30;137248;-37
2022/02/05 09:48:28;;;;;;;;;;;;;;;4.07;99.90;101710.16;2568653;30;138217;-37
2022/02/05 09:51:03;;;;;;;;;;;;;;;4.10;99.74;101708.03;2568203;30;137315;-38
2022/02/05 09:53:31;;;;;;;;;;;;;;;4.15;99.54;101713.81;2568837;30;137891;-37
2022/02/05 09:55:59;;;;;;;;;;;;;;;4.24;99.66;101716.63;2568912;30;137047;-37
2022/02/05 09:58:27;;;;;;;;;;;;;;;4.36;98.98;101712.75;2569630;30;137185;-37
2022/02/05 10:00:59;;;;;;;;;;;;;;;4.40;98.20;101707.91;2568042;30;136759;-37
2022/02/05 10:03:30;;;;;;;;;;;;;;;4.44;98.16;101707.44;2567661;30;137364;-37
2022/02/05 10:06:04;;;;;;;;;;;;;;;4.51;98.58;101709.53;2569032;30;137233;-37
2022/02/05 10:08:35;;;;;;;;;;;;;;;4.57;97.64;101717.88;2568406;30;138608;-37
2022/02/05 10:11:04;;;;;;;;;;;;;;;4.62;96.87;101722.84;2568878;30;136732;-36
2022/02/05 10:13:32;;;;;;;;;;;;;;;4.69;96.58;101718.53;2568901;30;138900;-37
2022/02/05 10:16:00;;;;;;;;;;;;;;;4.77;96.00;101715.06;2565327;30;137058;-37
2022/02/05 10:18:30;;;;;;;;;;;;;;;4.84;96.07;101724.28;2566347;30;139198;-37
2022/02/05 10:21:02;;;;;;;;;;;;;;;4.81;95.92;101718.34;2568904;30;137157;-37
2022/02/05 10:23:30;;;;;;;;;;;;;;;4.85;96.14;101725.97;2567327;30;138415;-37
2022/02/05 10:25:58;;;;;;;;;;;;;;;4.88;95.79;101725.66;2569180;30;137283;-37
2022/02/05 10:28:26;;;;;;;;;;;;;;;4.92;96.42;101726.22;2568406;30;138291;-38
2022/02/05 10:30:55;;;;;;;;;;;;;;;4.94;97.07;101724.22;2566585;30;137735;-38
2022/02/05 10:33:31;;;;;;;;;;;;;;;4.92;93.78;101723.50;2568139;30;139064;-37
2022/02/05 10:36:08;;;;;;;;;;;;;;;5.01;94.69;101727.16;2568766;30;137285;-37
2022/02/05 10:44:13;;;;;;;;;;;;;;;5.08;93.20;101730.09;2567042;30;138916;-37
2022/02/05 10:46:44;;;;;;;;;;;;;;;5.07;92.36;101734.66;2569300;30;136949;-37
2022/02/05 10:49:12;;;;;;;;;;;;;;;4.95;93.08;101735.91;2567428;30;137233;-37
2022/02/05 10:51:43;;;;;;;;;;;;;;;4.99;94.13;101732.72;2568145;30;137233;-37
2022/02/05 10:54:20;;;;;;;;;;;;;;;5.04;93.44;101735.81;2566814;30;139746;-37
2022/02/05 10:57:08;;;;;;;;;;;;;;;5.05;94.47;101725.84;2567869;30;137132;-37
2022/02/05 11:08:02;;;;;;;;;;;;;;;5.29;94.04;101708.13;2567600;30;137182;-37
2022/02/05 11:20:57;;;;;;;;;;;;;;;5.92;89.14;101705.38;2565982;30;137954;-37
2022/02/05 11:23:29;;;;;;;;;;;;;;;6.19;92.54;101701.66;2566604;30;137325;-37
2022/02/05 11:25:58;;;;;;;;;;;;;;;6.44;87.84;101699.91;2568761;30;137845;-38
2022/02/05 11:28:43;;;;;;;;;;;;;;;6.39;86.96;101705.00;2567673;30;137436;-37
2022/02/05 11:31:39;;;;;;;;;;;;;;;6.31;86.59;101699.50;2568628;30;137242;-37
2022/02/05 11:34:28;;;;;;;;;;;;;;;6.38;85.42;101692.44;2568581;30;136694;-37
2022/02/05 11:37:02;;;;;;;;;;;;;;;6.41;87.14;101693.97;2568551;30;137568;-37
2022/02/05 11:39:42;;;;;;;;;;;;;;;6.41;85.44;101691.25;2568183;30;137875;-37
2022/02/05 11:42:34;;;;;;;;;;;;;;;6.27;85.39;101699.00;2568719;30;138847;-37
2022/02/05 11:45:37;;;;;;;;;;;;;;;6.26;86.77;101701.88;2567717;30;137259;-37
2022/02/05 11:48:36;;;;;;;;;;;;;;;6.24;85.35;101693.91;2566050;30;139121;-37
2022/02/05 11:51:28;;;;;;;;;;;;;;;6.19;84.95;101707.94;2567723;30;137945;-37
2022/02/05 11:53:58;;;;;;;;;;;;;;;6.27;85.23;101698.13;2566947;30;137199;-37
2022/02/05 11:56:53;;;;;;;;;;;;;;;6.42;85.15;101703.78;2568856;30;137973;-37
2022/02/05 11:59:31;;;;;;;;;;;;;;;6.48;83.92;101701.28;2569171;30;137340;-37
2022/02/05 12:02:16;;;;;;;;;;;;;;;6.52;85.84;101706.38;2568058;30;137391;-37
2022/02/05 12:04:44;;;;;;;;;;;;;;;6.53;83.60;101697.22;2567597;30;137397;-37
2022/02/05 12:07:14;;;;;;;;;;;;;;;6.45;82.28;101698.03;2568483;30;137738;-37
2022/02/05 12:09:57;;;;;;;;;;;;;;;6.45;83.46;101700.75;2568115;30;138122;-38
2022/02/05 12:12:35;;;;;;;;;;;;;;;6.47;82.24;101701.44;2568865;30;136833;-38
2022/02/05 12:15:06;;;;;;;;;;;;;;;6.47;80.00;101698.72;2568332;30;138104;-37
2022/02/05 12:17:54;;;;;;;;;;;;;;;6.47;80.07;101691.44;2567294;30;137434;-37
2022/02/05 12:20:27;;;;;;;;;;;;;;;6.43;82.30;101673.81;2565581;30;139446;-37
2022/02/05 12:23:30;;;;;;;;;;;;;;;6.44;80.26;101669.22;2569105;30;136989;-37
2022/02/05 12:25:58;;;;;;;;;;;;;;;6.49;79.51;101675.00;2566890;30;138448;-37
2022/02/05 12:28:29;;;;;;;;;;;;;;;6.53;80.66;101664.69;2568126;30;137764;-37
2022/02/05 12:30:59;;;;;;;;;;;;;;;6.53;80.73;101652.00;2566547;30;138294;-37
2022/02/05 12:33:47;;;;;;;;;;;;;;;6.63;80.16;101670.84;2568663;30;137008;-37
2022/02/05 12:36:36;;;;;;;;;;;;;;;6.70;79.66;101671.88;2567897;30;139091;-37
2022/02/05 12:39:24;;;;;;;;;;;;;;;6.62;80.80;101660.97;2569277;30;137205;-37
2022/02/05 12:41:52;;;;;;;;;;;;;;;6.53;79.23;101660.13;2567882;30;138105;-37
2022/02/05 12:44:24;;;;;;;;;;;;;;;6.52;79.93;101654.84;2569020;30;137359;-37
2022/02/05 12:46:56;;;;;;;;;;;;;;;6.48;77.90;101647.06;2568427;30;137194;-37
2022/02/05 12:52:12;;;;;;;;;;;;;;;7.04;78.73;101634.78;2568171;30;137149;-37
2022/02/05 12:54:48;;;;;;;;;;;;;;;7.21;78.13;101627.47;2565191;30;137151;-38
2022/02/05 12:57:17;;;;;;;;;;;;;;;7.22;77.51;101645.47;2568433;30;139198;-37
2022/02/05 12:59:46;;;;;;;;;;;;;;;7.36;73.91;101659.34;2568345;30;136775;-38
2022/02/05 13:02:15;;;;;;;;;;;;;;;7.44;74.07;101643.06;2568245;30;137756;-37
2022/02/05 13:04:46;;;;;;;;;;;;;;;7.34;72.71;101652.22;2568018;30;137800;-38
2022/02/05 13:07:19;;;;;;;;;;;;;;;7.32;74.37;101646.13;2570082;30;139384;-38
2022/02/05 13:09:54;;;;;;;;;;;;;;;7.13;72.93;101639.19;2567150;30;137188;-36
2022/02/05 13:12:37;;;;;;;;;;;;;;;7.16;75.45;101644.28;2567751;30;138157;-37
2022/02/05 13:15:22;;;;;;;;;;;;;;;7.34;75.95;101641.38;2568130;30;138109;-38
2022/02/05 13:36:43;;;;;;;;;;;;;;;6.83;72.67;101621.69;2567728;30;138064;-40
2022/02/05 13:44:23;;;;;;;;;;;;;;;6.58;73.37;101627.06;2566751;30;138501;-40
2022/02/05 13:47:05;;;;;;;;;;;;;;;6.55;74.90;101619.28;2568148;30;136873;-40
2022/02/05 13:49:33;;;;;;;;;;;;;;;6.52;74.95;101623.19;2567077;30;138280;-39
2022/02/05 13:52:19;;;;;;;;;;;;;;;6.51;74.42;101618.78;2566091;30;137096;-39
2022/02/05 13:54:47;;;;;;;;;;;;;;;6.44;74.12;101612.31;2568043;30;137631;-40
2022/02/05 13:57:15;;;;;;;;;;;;;;;6.44;72.98;101601.47;2566127;30;137283;-40
2022/02/05 13:59:54;;;;;;;;;;;;;;;6.37;72.71;101597.72;2567832;30;138300;-39
2022/02/05 14:02:22;;;;;;;;;;;;;;;6.30;74.48;101600.25;2566660;30;137894;-40
2022/02/05 14:05:12;;;;;;;;;;;;;;;6.27;74.92;101589.72;2568363;30;137517;-40
2022/02/05 14:07:48;;;;;;;;;;;;;;;6.33;73.75;101587.22;2568914;30;138135;-40
2022/02/05 14:10:17;;;;;;;;;;;;;;;6.34;73.86;101585.34;2565236;30;139214;-40
2022/02/05 14:12:46;;;;;;;;;;;;;;;6.35;74.40;101592.47;2569046;30;137216;-40
2022/02/05 14:15:14;;;;;;;;;;;;;;;6.31;74.59;101580.25;2567923;30;138509;-40
2022/02/05 14:17:42;;;;;;;;;;;;;;;6.25;74.28;101575.50;2568877;30;137903;-40
2022/02/05 14:20:12;;;;;;;;;;;;;;;6.24;74.91;101580.09;2567716;30;139364;-40
2022/02/05 14:22:43;;;;;;;;;;;;;;;6.19;74.54;101585.13;2567249;30;137080;-39
2022/02/05 14:25:30;;;;;;;;;;;;;;;6.25;74.48;101581.78;2568641;30;138005;-40
2022/02/05 14:28:11;;;;;;;;;;;;;;;6.33;72.68;101586.34;2568568;30;137787;-40
2022/02/05 14:30:44;;;;;;;;;;;;;;;6.33;72.78;101579.09;2567486;30;139034;-40
2022/02/05 14:33:14;;;;;;;;;;;;;;;6.33;72.59;101592.63;2568386;30;137186;-40
2022/02/05 14:36:00;;;;;;;;;;;;;;;6.32;73.18;101584.66;2568840;30;138270;-40
2022/02/05 14:41:15;;;;;;;;;;;;;;;6.51;71.73;101575.41;2567835;30;137583;-40
2022/02/05 14:43:43;;;;;;;;;;;;;;;6.56;73.23;101577.59;2567399;30;137602;-40
2022/02/05 14:46:11;;;;;;;;;;;;;;;6.58;72.87;101575.56;2567358;30;138735;-40
2022/02/05 14:48:38;;;;;;;;;;;;;;;6.57;73.42;101584.72;2568090;30;137078;-40
2022/02/05 14:51:07;;;;;;;;;;;;;;;6.57;74.33;101582.00;2567474;30;137209;-40
2022/02/05 14:53:35;;;;;;;;;;;;;;;6.50;71.78;101581.84;2564995;30;136815;-40
2022/02/05 14:56:03;;;;;;;;;;;;;;;6.47;73.59;101583.00;2568060;30;138014;-40
2022/02/05 14:58:31;;;;;;;;;;;;;;;6.43;74.05;101576.22;2567820;30;136991;-40
2022/02/05 15:00:59;;;;;;;;;;;;;;;6.39;74.27;101566.75;2567955;30;139128;-40
2022/02/05 15:03:26;;;;;;;;;;;;;;;6.34;72.74;101566.38;2569469;30;136923;-40
2022/02/05 15:05:59;;;;;;;;;;;;;;;6.36;74.08;101558.91;2568728;30;137886;-40
2022/02/05 15:08:27;;;;;;;;;;;;;;;6.33;73.09;101567.38;2569153;30;137767;-40
2022/02/05 15:10:55;;;;;;;;;;;;;;;6.35;72.59;101559.09;2566193;30;137339;-40
2022/02/05 15:13:23;;;;;;;;;;;;;;;6.30;73.66;101567.72;2569027;30;137300;-40
2022/02/05 15:15:53;;;;;;;;;;;;;;;6.25;74.34;101567.38;2569235;30;138439;-39
2022/02/05 15:18:21;;;;;;;;;;;;;;;6.24;74.08;101557.56;2568049;30;136737;-39
2022/02/05 15:20:49;;;;;;;;;;;;;;;6.19;74.61;101555.31;2568636;30;139038;-40
2022/02/05 15:23:19;;;;;;;;;;;;;;;6.16;74.54;101570.06;2568186;30;136804;-40
2022/02/05 15:25:49;;;;;;;;;;;;;;;6.11;74.64;101556.19;2568184;30;138205;-40
2022/02/05 15:28:17;;;;;;;;;;;;;;;6.09;74.41;101558.19;2569189;30;137234;-39
2022/02/05 15:30:44;;;;;;;;;;;;;;;6.09;73.88;101566.31;2569227;30;138046;-40
2022/02/05 15:33:12;;;;;;;;;;;;;;;6.09;74.63;101541.09;2569725;30;137012;-40
2022/02/05 15:35:40;;;;;;;;;;;;;;;6.03;74.36;101551.56;2567213;30;138945;-40
2022/02/05 15:38:14;;;;;;;;;;;;;;;6.00;74.68;101556.44;2569289;30;137250;-40
2022/02/05 15:43:52;;;;;;;;;;;;;;;5.98;75.91;101555.75;2567370;30;136754;-40
2022/02/05 15:46:20;;;;;;;;;;;;;;;6.05;74.47;101545.97;2568994;30;137081;-40
2022/02/05 15:48:48;;;;;;;;;;;;;;;6.03;74.45;101535.31;2568745;30;137784;-39
2022/02/05 15:51:17;;;;;;;;;;;;;;;6.03;74.19;101539.88;2568104;30;138405;-40
2022/02/05 15:53:52;;;;;;;;;;;;;;;6.03;74.14;101539.88;2568123;30;137972;-39
2022/02/05 15:59:10;;;;;;;;;;;;;;;6.02;74.75;101549.88;2569008;30;137233;-40
2022/02/05 16:01:39;;;;;;;;;;;;;;;6.02;75.94;101544.47;2569030;30;138579;-40
2022/02/05 16:04:07;;;;;;;;;;;;;;;5.96;75.33;101539.66;2568391;30;136864;-40